createdAt,value
2023-09-17T00:00:59.344Z,76.5
2023-09-17T00:01:59.386Z,76.5
2023-09-17T00:02:59.388Z,76.5
2023-09-17T00:03:59.449Z,75.9
2023-09-17T00:04:59.352Z,75.9
2023-09-17T00:05:59.345Z,75.9
2023-09-17T00:06:59.342Z,75.9
2023-09-17T00:07:59.348Z,75.2
2023-09-17T00:08:59.359Z,75.2
2023-09-17T00:09:59.345Z,75.2
2023-09-17T00:10:59.355Z,75.2
2023-09-17T00:11:59.343Z,75.2
2023-09-17T00:12:59.341Z,75.2
2023-09-17T00:13:59.353Z,74.9
2023-09-17T00:14:59.344Z,74.6
2023-09-17T00:15:59.421Z,74.9
2023-09-17T00:16:59.442Z,74.9
2023-09-17T00:17:59.431Z,74.6
2023-09-17T00:18:59.336Z,74.9
2023-09-17T00:19:59.344Z,74.9
2023-09-17T00:20:59.337Z,74.9
2023-09-17T00:21:59.340Z,75.2
2023-09-17T00:22:59.378Z,75.2
2023-09-17T00:23:59.344Z,75.4
2023-09-17T00:24:59.360Z,75.2
2023-09-17T00:25:59.348Z,75.2
2023-09-17T00:26:59.356Z,75.5
2023-09-17T00:27:59.343Z,75.8
2023-09-17T00:28:59.337Z,75.8
2023-09-17T00:29:59.351Z,75.8
2023-09-17T00:30:59.373Z,75.8
2023-09-17T00:31:59.342Z,75.9
2023-09-17T00:32:59.357Z,75.8
2023-09-17T00:33:59.407Z,75.8
2023-09-17T00:34:59.346Z,75.8
2023-09-17T00:35:59.343Z,75.8
2023-09-17T00:36:59.350Z,75.8
2023-09-17T00:37:59.346Z,75.8
2023-09-17T00:38:59.358Z,75.7
2023-09-17T00:39:59.345Z,75.8
2023-09-17T00:40:59.348Z,76.4
2023-09-17T00:41:59.334Z,76.5
2023-09-17T00:42:59.346Z,77
2023-09-17T00:43:59.371Z,76.7
2023-09-17T00:44:59.357Z,77
2023-09-17T00:45:59.426Z,77
2023-09-17T00:46:59.429Z,77
2023-09-17T00:47:59.349Z,77
2023-09-17T00:48:59.339Z,77.7
2023-09-17T00:49:59.349Z,77.6
2023-09-17T00:50:59.341Z,77.6
2023-09-17T00:51:59.337Z,77.6
2023-09-17T00:52:59.343Z,78
2023-09-17T00:53:59.337Z,78.2
2023-09-17T00:54:59.339Z,78
2023-09-17T00:55:59.336Z,78.3
2023-09-17T00:56:59.352Z,78.3
2023-09-17T00:57:59.344Z,78.6
2023-09-17T00:58:59.334Z,78.9
2023-09-17T00:59:59.345Z,78.9
2023-09-17T01:00:59.411Z,78.2
2023-09-17T01:01:59.421Z,78.2
2023-09-17T01:02:59.409Z,78.2
2023-09-17T01:03:59.392Z,78.2
2023-09-17T01:04:59.339Z,78.2
2023-09-17T01:05:59.358Z,77.9
2023-09-17T01:06:59.352Z,78.2
2023-09-17T01:07:59.444Z,78.2
2023-09-17T01:08:59.385Z,78.3
2023-09-17T01:09:59.367Z,78.2
2023-09-17T01:10:59.361Z,77.9
2023-09-17T01:11:59.352Z,78.3
2023-09-17T01:12:59.348Z,78.3
2023-09-17T01:13:59.366Z,78.3
2023-09-17T01:14:59.357Z,77.6
2023-09-17T01:15:59.403Z,77.9
2023-09-17T01:16:59.376Z,77.6
2023-09-17T01:17:59.387Z,78.3
2023-09-17T01:18:59.356Z,78.3
2023-09-17T01:19:59.361Z,78.3
2023-09-17T01:20:59.367Z,78.3
2023-09-17T01:21:59.348Z,78.3
2023-09-17T01:22:59.352Z,78.6
2023-09-17T01:23:59.355Z,78.6
2023-09-17T01:24:59.354Z,78.9
2023-09-17T01:25:59.401Z,78.6
2023-09-17T01:26:59.361Z,78.9
2023-09-17T01:27:59.360Z,78.9
2023-09-17T01:28:59.346Z,78.3
2023-09-17T01:29:59.353Z,78.9
2023-09-17T01:30:59.348Z,78.9
2023-09-17T01:31:59.356Z,78.6
2023-09-17T01:32:59.356Z,79.1
2023-09-17T01:33:59.399Z,78.9
2023-09-17T01:34:59.775Z,78.9
2023-09-17T01:35:59.376Z,78.9
2023-09-17T01:36:59.358Z,78.6
2023-09-17T01:37:59.375Z,78.9
2023-09-17T01:38:59.356Z,78.3
2023-09-17T01:39:59.364Z,78.3
2023-09-17T01:40:59.347Z,78.2
2023-09-17T01:41:59.351Z,78.6
2023-09-17T01:42:59.352Z,78.6
2023-09-17T01:43:59.360Z,78.3
2023-09-17T01:44:59.355Z,78.3
2023-09-17T01:45:59.387Z,78.6
2023-09-17T01:46:59.392Z,78.3
2023-09-17T01:47:59.422Z,78.3
2023-09-17T01:48:59.351Z,78.3
2023-09-17T01:49:59.352Z,78.3
2023-09-17T01:50:59.352Z,78.3
2023-09-17T01:51:59.350Z,78.5
2023-09-17T01:52:59.351Z,78.3
2023-09-17T01:53:59.356Z,78.5
2023-09-17T01:54:59.345Z,78.6
2023-09-17T01:55:59.355Z,78.6
2023-09-17T01:56:59.364Z,78.3
2023-09-17T01:57:59.371Z,78.3
2023-09-17T01:58:59.350Z,78.3
2023-09-17T01:59:59.366Z,78.3
2023-09-17T02:00:59.299Z,78.6
2023-09-17T02:01:59.440Z,78.6
2023-09-17T02:02:59.422Z,78.6
2023-09-17T02:03:59.384Z,78.6
2023-09-17T02:04:59.369Z,78.3
2023-09-17T02:05:59.349Z,78.3
2023-09-17T02:06:59.353Z,78.6
2023-09-17T02:07:59.346Z,78.3
2023-09-17T02:08:59.360Z,78.3
2023-09-17T02:09:59.401Z,78.3
2023-09-17T02:10:59.352Z,78.5
2023-09-17T02:11:59.351Z,77.7
2023-09-17T02:12:59.354Z,77.7
2023-09-17T02:13:59.397Z,77.7
2023-09-17T02:14:59.348Z,77.7
2023-09-17T02:15:59.440Z,77.7
2023-09-17T02:16:59.342Z,77.4
2023-09-17T02:17:59.370Z,77.7
2023-09-17T02:18:59.382Z,77.4
2023-09-17T02:19:59.369Z,77.4
2023-09-17T02:20:59.348Z,77.7
2023-09-17T02:21:59.342Z,77.7
2023-09-17T02:22:59.345Z,77.1
2023-09-17T02:23:59.341Z,77.4
2023-09-17T02:24:59.332Z,77.7
2023-09-17T02:25:59.334Z,77.7
2023-09-17T02:26:59.349Z,78
2023-09-17T02:27:59.337Z,78.3
2023-09-17T02:28:59.336Z,78.5
2023-09-17T02:29:59.341Z,78
2023-09-17T02:30:59.334Z,78.3
2023-09-17T02:31:59.418Z,78.3
2023-09-17T02:32:59.375Z,77.7
2023-09-17T02:33:59.332Z,77.7
2023-09-17T02:34:59.336Z,78
2023-09-17T02:35:59.338Z,77.7
2023-09-17T02:36:59.334Z,78
2023-09-17T02:37:59.334Z,78
2023-09-17T02:38:59.334Z,78.3
2023-09-17T02:39:59.341Z,78
2023-09-17T02:40:59.355Z,78
2023-09-17T02:41:59.335Z,78.1
2023-09-17T02:42:59.346Z,77.7
2023-09-17T02:43:59.389Z,77.7
2023-09-17T02:44:59.342Z,78.1
2023-09-17T02:45:59.336Z,78.1
2023-09-17T02:46:59.386Z,78.4
2023-09-17T02:47:59.378Z,77.7
2023-09-17T02:48:59.337Z,78
2023-09-17T02:49:59.355Z,78.4
2023-09-17T02:50:59.334Z,78.4
2023-09-17T02:51:59.344Z,78.4
2023-09-17T02:52:59.336Z,78.7
2023-09-17T02:53:59.580Z,78.4
2023-09-17T02:54:59.340Z,78.4
2023-09-17T02:55:59.339Z,78.4
2023-09-17T02:56:59.345Z,78.4
2023-09-17T02:57:59.338Z,78.1
2023-09-17T02:58:59.340Z,77.7
2023-09-17T02:59:59.368Z,78.1
2023-09-17T03:00:59.360Z,78.1
2023-09-17T03:01:59.406Z,78.4
2023-09-17T03:02:59.453Z,78.4
2023-09-17T03:03:59.345Z,79
2023-09-17T03:04:59.348Z,77.8
2023-09-17T03:05:59.344Z,78.4
2023-09-17T03:06:59.344Z,78.4
2023-09-17T03:07:59.340Z,78.4
2023-09-17T03:08:59.341Z,78.1
2023-09-17T03:09:59.352Z,77.8
2023-09-17T03:10:59.398Z,78.4
2023-09-17T03:11:59.341Z,78.4
2023-09-17T03:12:59.337Z,78.1
2023-09-17T03:13:59.356Z,78.4
2023-09-17T03:14:59.338Z,78.4
2023-09-17T03:15:59.373Z,78.4
2023-09-17T03:16:59.425Z,78.4
2023-09-17T03:17:59.359Z,78.1
2023-09-17T03:18:59.350Z,78.4
2023-09-17T03:19:59.345Z,78.4
2023-09-17T03:20:59.346Z,78.4
2023-09-17T03:21:59.337Z,78.1
2023-09-17T03:22:59.345Z,78.4
2023-09-17T03:23:59.339Z,78.1
2023-09-17T03:25:04.400Z,78.1
2023-09-17T03:25:59.349Z,77.8
2023-09-17T03:26:59.342Z,78.4
2023-09-17T03:27:59.341Z,77.8
2023-09-17T03:28:59.442Z,78.1
2023-09-17T03:29:59.352Z,78.4
2023-09-17T03:30:59.440Z,78.4
2023-09-17T03:31:59.367Z,78.4
2023-09-17T03:33:04.805Z,78.4
2023-09-17T03:33:59.338Z,78.4
2023-09-17T03:34:59.338Z,78.4
2023-09-17T03:35:59.341Z,78.6
2023-09-17T03:36:59.352Z,78
2023-09-17T03:37:59.355Z,77.8
2023-09-17T03:38:59.338Z,78.4
2023-09-17T03:39:59.356Z,78.1
2023-09-17T03:40:59.373Z,78.4
2023-09-17T03:41:59.340Z,78.1
2023-09-17T03:42:59.341Z,78.5
2023-09-17T03:43:59.384Z,78.4
2023-09-17T03:44:59.343Z,78.5
2023-09-17T03:45:59.378Z,78.8
2023-09-17T03:46:59.393Z,79.1
2023-09-17T03:47:59.355Z,79.1
2023-09-17T03:48:59.393Z,78.8
2023-09-17T03:49:59.364Z,79.1
2023-09-17T03:50:59.338Z,78.4
2023-09-17T03:51:59.349Z,78.8
2023-09-17T03:52:59.340Z,78.6
2023-09-17T03:53:59.336Z,78.4
2023-09-17T03:54:59.354Z,78.6
2023-09-17T03:55:59.346Z,78.8
2023-09-17T03:56:59.343Z,78.8
2023-09-17T03:57:59.339Z,79.1
2023-09-17T03:58:59.400Z,79.1
2023-09-17T03:59:59.389Z,79.1
2023-09-17T04:00:59.337Z,79.1
2023-09-17T04:01:59.456Z,79.1
2023-09-17T04:02:59.352Z,79.1
2023-09-17T04:03:59.382Z,79.1
2023-09-17T04:04:59.373Z,79.7
2023-09-17T04:05:59.335Z,79.1
2023-09-17T04:06:59.339Z,79.9
2023-09-17T04:07:59.350Z,79.1
2023-09-17T04:08:59.344Z,79.4
2023-09-17T04:09:59.336Z,79.6
2023-09-17T04:10:59.381Z,79.7
2023-09-17T04:11:59.331Z,79.4
2023-09-17T04:12:59.340Z,79.7
2023-09-17T04:13:59.400Z,79.7
2023-09-17T04:14:59.339Z,79.7
2023-09-17T04:15:59.450Z,79.7
2023-09-17T04:16:59.420Z,79.7
2023-09-17T04:17:59.408Z,79.7
2023-09-17T04:18:59.334Z,79.7
2023-09-17T04:19:59.339Z,79.4
2023-09-17T04:20:59.335Z,79.1
2023-09-17T04:21:59.335Z,79.4
2023-09-17T04:22:59.370Z,79.4
2023-09-17T04:23:59.353Z,79.7
2023-09-17T04:24:59.340Z,79.9
2023-09-17T04:25:59.376Z,79.7
2023-09-17T04:26:59.350Z,79.7
2023-09-17T04:27:59.338Z,79.7
2023-09-17T04:28:59.337Z,79.7
2023-09-17T04:29:59.342Z,79.7
2023-09-17T04:30:59.359Z,79.1
2023-09-17T04:31:59.420Z,79.1
2023-09-17T04:32:59.383Z,79.1
2023-09-17T04:33:59.349Z,79.2
2023-09-17T04:34:59.347Z,78.5
2023-09-17T04:35:59.636Z,78.1
2023-09-17T04:36:59.350Z,78.1
2023-09-17T04:37:59.345Z,78.5
2023-09-17T04:38:59.344Z,78.5
2023-09-17T04:39:59.353Z,78.5
2023-09-17T04:40:59.367Z,78.5
2023-09-17T04:41:59.345Z,78.3
2023-09-17T04:42:59.355Z,78.8
2023-09-17T04:43:59.403Z,79.3
2023-09-17T04:44:59.342Z,79.1
2023-09-17T04:45:59.447Z,79.1
2023-09-17T04:46:59.425Z,79.1
2023-09-17T04:47:59.477Z,79.3
2023-09-17T04:48:59.354Z,79.1
2023-09-17T04:49:59.396Z,79.1
2023-09-17T04:50:59.356Z,79.1
2023-09-17T04:51:59.346Z,79.1
2023-09-17T04:52:59.437Z,79.1
2023-09-17T04:53:59.347Z,79.4
2023-09-17T04:54:59.346Z,79.1
2023-09-17T04:55:59.362Z,79.1
2023-09-17T04:56:59.360Z,79.1
2023-09-17T04:57:59.352Z,79.3
2023-09-17T04:58:59.374Z,78.8
2023-09-17T04:59:59.864Z,78.5
2023-09-17T05:00:59.348Z,78.5
2023-09-17T05:01:59.515Z,78.5
2023-09-17T05:02:59.488Z,78.5
2023-09-17T05:03:59.377Z,78.5
2023-09-17T05:04:59.344Z,78.5
2023-09-17T05:05:59.352Z,78.3
2023-09-17T05:06:59.346Z,78.3
2023-09-17T05:07:59.401Z,78.2
2023-09-17T05:08:59.337Z,77.9
2023-09-17T05:09:59.348Z,77.8
2023-09-17T05:10:59.358Z,77.8
2023-09-17T05:11:59.341Z,77.9
2023-09-17T05:12:59.363Z,77.5
2023-09-17T05:13:59.427Z,78.2
2023-09-17T05:14:59.346Z,78.2
2023-09-17T05:15:59.392Z,77.9
2023-09-17T05:16:59.416Z,78.2
2023-09-17T05:17:59.378Z,77.9
2023-09-17T05:18:59.343Z,77.8
2023-09-17T05:19:59.406Z,77.5
2023-09-17T05:20:59.336Z,77.2
2023-09-17T05:21:59.356Z,77.5
2023-09-17T05:22:59.360Z,77.9
2023-09-17T05:23:59.338Z,77.5
2023-09-17T05:24:59.346Z,78
2023-09-17T05:25:59.370Z,77.9
2023-09-17T05:26:59.362Z,77.9
2023-09-17T05:27:59.341Z,77.2
2023-09-17T05:28:59.486Z,77.2
2023-09-17T05:29:59.342Z,77.5
2023-09-17T05:30:59.349Z,77.2
2023-09-17T05:31:59.425Z,77.2
2023-09-17T05:32:59.355Z,77.2
2023-09-17T05:33:59.355Z,77.2
2023-09-17T05:34:59.395Z,77.7
2023-09-17T05:35:59.346Z,77.2
2023-09-17T05:36:59.338Z,77.2
2023-09-17T05:37:59.401Z,77.2
2023-09-17T05:39:00.239Z,77.2
2023-09-17T05:39:59.349Z,77.2
2023-09-17T05:40:59.377Z,77.4
2023-09-17T05:41:59.333Z,77.4
2023-09-17T05:42:59.341Z,77.2
2023-09-17T05:43:59.404Z,77.2
2023-09-17T05:44:59.337Z,76.8
2023-09-17T05:45:59.396Z,76.9
2023-09-17T05:46:59.358Z,76.8
2023-09-17T05:47:59.372Z,76.6
2023-09-17T05:48:59.336Z,76.5
2023-09-17T05:49:59.405Z,76.1
2023-09-17T05:51:00.153Z,75.8
2023-09-17T05:51:59.335Z,78.4
2023-09-17T05:52:59.370Z,79.6
2023-09-17T05:53:59.373Z,80.3
2023-09-17T05:54:59.347Z,80.3
2023-09-17T05:55:59.365Z,80.9
2023-09-17T05:56:59.335Z,80.9
2023-09-17T05:57:59.335Z,80.9
2023-09-17T05:58:59.487Z,80.9
2023-09-17T05:59:59.346Z,81.5
2023-09-17T06:00:59.374Z,81.2
2023-09-17T06:01:59.385Z,80.9
2023-09-17T06:02:59.398Z,81.2
2023-09-17T06:03:59.406Z,81.5
2023-09-17T06:05:01.124Z,81.5
2023-09-17T06:05:59.341Z,81.8
2023-09-17T06:06:59.340Z,82.1
2023-09-17T06:07:59.393Z,82.2
2023-09-17T06:08:59.337Z,81.8
2023-09-17T06:09:59.336Z,81.5
2023-09-17T06:10:59.355Z,81.8
2023-09-17T06:11:59.343Z,82.1
2023-09-17T06:12:59.337Z,82.1
2023-09-17T06:13:59.347Z,82.5
2023-09-17T06:14:59.335Z,82.8
2023-09-17T06:15:59.404Z,82.8
2023-09-17T06:16:59.377Z,82.8
2023-09-17T06:17:59.426Z,82.8
2023-09-17T06:18:59.340Z,82.8
2023-09-17T06:19:59.391Z,82.8
2023-09-17T06:20:59.338Z,83.1
2023-09-17T06:21:59.360Z,82.8
2023-09-17T06:22:59.393Z,83.1
2023-09-17T06:23:59.339Z,83.4
2023-09-17T06:24:59.337Z,83.1
2023-09-17T06:25:59.352Z,83.1
2023-09-17T06:26:59.345Z,83.4
2023-09-17T06:27:59.340Z,83.1
2023-09-17T06:28:59.377Z,83.1
2023-09-17T06:29:59.354Z,82.8
2023-09-17T06:30:59.345Z,82.8
2023-09-17T06:31:59.395Z,82.8
2023-09-17T06:32:59.385Z,82.8
2023-09-17T06:33:59.335Z,82.8
2023-09-17T06:34:59.365Z,82.8
2023-09-17T06:35:59.351Z,82.8
2023-09-17T06:36:59.632Z,82.8
2023-09-17T06:37:59.366Z,82.8
2023-09-17T06:38:59.334Z,83.5
2023-09-17T06:39:59.340Z,83.5
2023-09-17T06:40:59.389Z,83.5
2023-09-17T06:41:59.332Z,83.4
2023-09-17T06:42:59.344Z,83.5
2023-09-17T06:43:59.411Z,83.5
2023-09-17T06:44:59.331Z,83.8
2023-09-17T06:45:59.338Z,83.5
2023-09-17T06:46:59.433Z,83.5
2023-09-17T06:47:59.373Z,83.2
2023-09-17T06:48:59.350Z,83.2
2023-09-17T06:49:59.374Z,83.5
2023-09-17T06:50:59.360Z,82.9
2023-09-17T06:51:59.339Z,82.9
2023-09-17T06:52:59.360Z,83.5
2023-09-17T06:53:59.341Z,83.5
2023-09-17T06:54:59.345Z,83.5
2023-09-17T06:55:59.367Z,83.5
2023-09-17T06:56:59.341Z,83.5
2023-09-17T06:57:59.354Z,83.2
2023-09-17T06:58:59.406Z,82.9
2023-09-17T06:59:59.339Z,83.2
2023-09-17T07:00:59.355Z,82.9
2023-09-17T07:01:59.419Z,82.9
2023-09-17T07:02:59.364Z,83.2
2023-09-17T07:03:59.397Z,82.9
2023-09-17T07:04:59.400Z,82.9
2023-09-17T07:05:59.342Z,82.6
2023-09-17T07:06:59.328Z,82.3
2023-09-17T07:07:59.387Z,82.9
2023-09-17T07:08:59.330Z,82.9
2023-09-17T07:09:59.337Z,82.9
2023-09-17T07:10:59.371Z,82.9
2023-09-17T07:11:59.337Z,82.9
2023-09-17T07:12:59.345Z,82.9
2023-09-17T07:14:00.674Z,82.9
2023-09-17T07:14:59.338Z,82.9
2023-09-17T07:15:59.343Z,82.9
2023-09-17T07:16:59.442Z,83
2023-09-17T07:17:59.358Z,83
2023-09-17T07:18:59.341Z,83
2023-09-17T07:19:59.363Z,83
2023-09-17T07:20:59.337Z,83.3
2023-09-17T07:21:59.354Z,83.6
2023-09-17T07:22:59.429Z,83.6
2023-09-17T07:23:59.338Z,83.6
2023-09-17T07:24:59.344Z,83
2023-09-17T07:25:59.360Z,83
2023-09-17T07:26:59.360Z,82.6
2023-09-17T07:27:59.341Z,82.3
2023-09-17T07:28:59.396Z,82
2023-09-17T07:29:59.342Z,81.7
2023-09-17T07:30:59.379Z,81.4
2023-09-17T07:31:59.379Z,81.7
2023-09-17T07:32:59.377Z,80.8
2023-09-17T07:33:59.336Z,80.4
2023-09-17T07:34:59.362Z,80.8
2023-09-17T07:35:59.337Z,80.4
2023-09-17T07:36:59.342Z,81.1
2023-09-17T07:37:59.375Z,81.7
2023-09-17T07:38:59.346Z,81.1
2023-09-17T07:39:59.350Z,80.8
2023-09-17T07:40:59.401Z,80.2
2023-09-17T07:41:59.339Z,81.1
2023-09-17T07:42:59.345Z,80.8
2023-09-17T07:43:59.370Z,80.8
2023-09-17T07:44:59.337Z,79.5
2023-09-17T07:45:59.348Z,79.5
2023-09-17T07:46:59.439Z,80.5
2023-09-17T07:47:59.395Z,80.5
2023-09-17T07:48:59.337Z,80.8
2023-09-17T07:49:59.402Z,80.8
2023-09-17T07:50:59.342Z,80.5
2023-09-17T07:51:59.344Z,80.5
2023-09-17T07:52:59.435Z,80.5
2023-09-17T07:53:59.352Z,80.6
2023-09-17T07:54:59.337Z,80.9
2023-09-17T07:55:59.365Z,80.3
2023-09-17T07:56:59.345Z,80.3
2023-09-17T07:57:59.345Z,80
2023-09-17T07:58:59.375Z,79.7
2023-09-17T07:59:59.347Z,79.4
2023-09-17T08:00:59.335Z,76.8
2023-09-17T08:01:59.423Z,77.5
2023-09-17T08:02:59.571Z,76.5
2023-09-17T08:03:59.425Z,76.2
2023-09-17T08:04:59.367Z,75.6
2023-09-17T08:05:59.347Z,74.9
2023-09-17T08:06:59.337Z,75
2023-09-17T08:07:59.420Z,75
2023-09-17T08:08:59.338Z,74.7
2023-09-17T08:09:59.740Z,75
2023-09-17T08:10:59.425Z,74
2023-09-17T08:11:59.400Z,74.4
2023-09-17T08:12:59.358Z,73.1
2023-09-17T08:13:59.372Z,73.8
2023-09-17T08:14:59.340Z,73.8
2023-09-17T08:15:59.351Z,73.8
2023-09-17T08:16:59.465Z,73.1
2023-09-17T08:17:59.396Z,73.2
2023-09-17T08:18:59.348Z,72.8
2023-09-17T08:19:59.368Z,71.9
2023-09-17T08:20:59.344Z,72.5
2023-09-17T08:21:59.345Z,71.9
2023-09-17T08:22:59.420Z,72.6
2023-09-17T08:23:59.337Z,72.6
2023-09-17T08:24:59.351Z,72.6
2023-09-17T08:25:59.351Z,71.3
2023-09-17T08:26:59.339Z,71.3
2023-09-17T08:27:59.340Z,71.3
2023-09-17T08:28:59.368Z,71.3
2023-09-17T08:29:59.335Z,70.7
2023-09-17T08:30:59.390Z,71
2023-09-17T08:31:59.440Z,70.7
2023-09-17T08:32:59.388Z,69.1
2023-09-17T08:33:59.340Z,68.8
2023-09-17T08:34:59.369Z,69.4
2023-09-17T08:35:59.343Z,70.1
2023-09-17T08:36:59.342Z,70.1
2023-09-17T08:37:59.653Z,70.8
2023-09-17T08:38:59.329Z,68.8
2023-09-17T08:39:59.338Z,66.9
2023-09-17T08:40:59.449Z,69
2023-09-17T08:41:59.343Z,68.8
2023-09-17T08:42:59.334Z,68.2
2023-09-17T08:43:59.387Z,68.9
2023-09-17T08:44:59.338Z,69.5
2023-09-17T08:45:59.381Z,69.2
2023-09-17T08:46:59.370Z,68.9
2023-09-17T08:47:59.364Z,67.6
2023-09-17T08:48:59.342Z,68.9
2023-09-17T08:49:59.365Z,68.3
2023-09-17T08:50:59.356Z,68
2023-09-17T08:51:59.342Z,67.6
2023-09-17T08:52:59.400Z,67.3
2023-09-17T08:53:59.355Z,67.3
2023-09-17T08:54:59.352Z,66.4
2023-09-17T08:55:59.378Z,66.4
2023-09-17T08:56:59.349Z,66.7
2023-09-17T08:57:59.346Z,67
2023-09-17T08:58:59.372Z,65.8
2023-09-17T08:59:59.356Z,63.8
2023-09-17T09:00:59.354Z,65.1
2023-09-17T09:01:59.382Z,65.8
2023-09-17T09:02:59.433Z,66.7
2023-09-17T09:03:59.408Z,66.1
2023-09-17T09:04:59.385Z,66.9
2023-09-17T09:05:59.344Z,65.6
2023-09-17T09:06:59.354Z,65.2
2023-09-17T09:07:59.423Z,64.5
2023-09-17T09:08:59.354Z,64.2
2023-09-17T09:09:59.348Z,64.9
2023-09-17T09:11:00.854Z,63.2
2023-09-17T09:11:59.349Z,62.6
2023-09-17T09:12:59.347Z,64.2
2023-09-17T09:13:59.419Z,63.2
2023-09-17T09:14:59.368Z,62.6
2023-09-17T09:15:59.363Z,62.6
2023-09-17T09:16:59.382Z,62.9
2023-09-17T09:17:59.387Z,62.9
2023-09-17T09:18:59.382Z,63.2
2023-09-17T09:19:59.394Z,62.6
2023-09-17T09:20:59.353Z,63.3
2023-09-17T09:21:59.356Z,60
2023-09-17T09:22:59.391Z,61
2023-09-17T09:23:59.357Z,61.3
2023-09-17T09:24:59.349Z,62.6
2023-09-17T09:25:59.449Z,60.4
2023-09-17T09:26:59.347Z,60.8
2023-09-17T09:27:59.361Z,60.7
2023-09-17T09:28:59.385Z,62
2023-09-17T09:29:59.350Z,62
2023-09-17T09:30:59.356Z,62.1
2023-09-17T09:31:59.463Z,60.7
2023-09-17T09:32:59.446Z,60.8
2023-09-17T09:33:59.350Z,62.1
2023-09-17T09:34:59.390Z,61.4
2023-09-17T09:35:59.337Z,60.8
2023-09-17T09:36:59.348Z,60.5
2023-09-17T09:37:59.355Z,61.4
2023-09-17T09:38:59.367Z,60.4
2023-09-17T09:39:59.344Z,58.8
2023-09-17T09:40:59.373Z,56.9
2023-09-17T09:41:59.340Z,58.2
2023-09-17T09:42:59.384Z,58.5
2023-09-17T09:43:59.387Z,60.1
2023-09-17T09:44:59.356Z,60.1
2023-09-17T09:45:59.375Z,59.5
2023-09-17T09:46:59.380Z,59.5
2023-09-17T09:47:59.398Z,59.5
2023-09-17T09:48:59.342Z,58.5
2023-09-17T09:49:59.391Z,58.9
2023-09-17T09:50:59.359Z,59.3
2023-09-17T09:51:59.348Z,56.2
2023-09-17T09:52:59.407Z,57.9
2023-09-17T09:53:59.344Z,58.8
2023-09-17T09:54:59.340Z,56.9
2023-09-17T09:55:59.378Z,56.9
2023-09-17T09:56:59.339Z,57.2
2023-09-17T09:57:59.344Z,57.9
2023-09-17T09:58:59.379Z,58.2
2023-09-17T09:59:59.354Z,57.5
2023-09-17T10:00:59.364Z,59.5
2023-09-17T10:01:59.383Z,57.2
2023-09-17T10:02:59.399Z,58.2
2023-09-17T10:03:59.487Z,57.9
2023-09-17T10:04:59.422Z,57
2023-09-17T10:05:59.340Z,56.3
2023-09-17T10:06:59.340Z,58.2
2023-09-17T10:07:59.359Z,58.5
2023-09-17T10:08:59.348Z,57.6
2023-09-17T10:09:59.350Z,57.6
2023-09-17T10:10:59.361Z,55.6
2023-09-17T10:11:59.347Z,57.7
2023-09-17T10:12:59.345Z,56.3
2023-09-17T10:13:59.449Z,55.6
2023-09-17T10:14:59.345Z,56.3
2023-09-17T10:15:59.375Z,55.7
2023-09-17T10:16:59.379Z,55
2023-09-17T10:17:59.366Z,54.3
2023-09-17T10:18:59.346Z,56.3
2023-09-17T10:19:59.393Z,56.3
2023-09-17T10:20:59.398Z,56.3
2023-09-17T10:21:59.347Z,54.3
2023-09-17T10:22:59.421Z,54
2023-09-17T10:23:59.345Z,56.3
2023-09-17T10:24:59.340Z,56.9
2023-09-17T10:25:59.405Z,55.7
2023-09-17T10:26:59.360Z,57.3
2023-09-17T10:27:59.340Z,55.8
2023-09-17T10:28:59.391Z,57.3
2023-09-17T10:29:59.362Z,56.3
2023-09-17T10:30:59.389Z,55.3
2023-09-17T10:31:59.361Z,57.6
2023-09-17T10:32:59.422Z,56.3
2023-09-17T10:33:59.342Z,54.1
2023-09-17T10:34:59.370Z,55.7
2023-09-17T10:35:59.363Z,54.7
2023-09-17T10:36:59.343Z,55.7
2023-09-17T10:37:59.399Z,55.7
2023-09-17T10:38:59.338Z,53.4
2023-09-17T10:39:59.348Z,54.5
2023-09-17T10:40:59.390Z,55.7
2023-09-17T10:41:59.338Z,55
2023-09-17T10:42:59.345Z,53.8
2023-09-17T10:43:59.364Z,53.4
2023-09-17T10:44:59.336Z,53.8
2023-09-17T10:45:59.354Z,55.1
2023-09-17T10:46:59.477Z,53.8
2023-09-17T10:47:59.372Z,52.1
2023-09-17T10:48:59.342Z,52.5
2023-09-17T10:49:59.430Z,52.8
2023-09-17T10:50:59.354Z,53.8
2023-09-17T10:51:59.337Z,54.8
2023-09-17T10:52:59.388Z,55.4
2023-09-17T10:53:59.332Z,54.8
2023-09-17T10:54:59.331Z,55.1
2023-09-17T10:55:59.369Z,54.8
2023-09-17T10:56:59.335Z,54.5
2023-09-17T10:57:59.338Z,54.5
2023-09-17T10:58:59.376Z,53.2
2023-09-17T10:59:59.351Z,53.2
2023-09-17T11:00:59.414Z,53.8
2023-09-17T11:01:59.499Z,53.8
2023-09-17T11:02:59.432Z,53.2
2023-09-17T11:03:59.337Z,52.2
2023-09-17T11:04:59.330Z,53.8
2023-09-17T11:05:59.341Z,55.4
2023-09-17T11:06:59.341Z,54.8
2023-09-17T11:07:59.386Z,54.5
2023-09-17T11:08:59.346Z,54.5
2023-09-17T11:09:59.373Z,55.8
2023-09-17T11:10:59.419Z,53.2
2023-09-17T11:11:59.369Z,51.9
2023-09-17T11:12:59.369Z,53.8
2023-09-17T11:13:59.356Z,51.9
2023-09-17T11:14:59.336Z,52.2
2023-09-17T11:15:59.335Z,52.2
2023-09-17T11:16:59.403Z,51.9
2023-09-17T11:17:59.471Z,51.9
2023-09-17T11:18:59.347Z,53.2
2023-09-17T11:19:59.349Z,53.2
2023-09-17T11:20:59.428Z,51.9
2023-09-17T11:21:59.353Z,52.9
2023-09-17T11:22:59.390Z,50.6
2023-09-17T11:23:59.342Z,52.9
2023-09-17T11:24:59.348Z,51.3
2023-09-17T11:25:59.371Z,51.3
2023-09-17T11:26:59.355Z,50
2023-09-17T11:27:59.365Z,51
2023-09-17T11:28:59.366Z,51.6
2023-09-17T11:29:59.350Z,50
2023-09-17T11:30:59.401Z,52.3
2023-09-17T11:31:59.353Z,52.6
2023-09-17T11:32:59.358Z,51.3
2023-09-17T11:33:59.343Z,51.3
2023-09-17T11:34:59.394Z,50
2023-09-17T11:35:59.343Z,48
2023-09-17T11:36:59.342Z,48.7
2023-09-17T11:37:59.378Z,49.3
2023-09-17T11:38:59.354Z,48.4
2023-09-17T11:39:59.354Z,48.7
2023-09-17T11:40:59.360Z,47.7
2023-09-17T11:41:59.348Z,48.4
2023-09-17T11:42:59.364Z,48.7
2023-09-17T11:43:59.370Z,47.1
2023-09-17T11:44:59.352Z,47.7
2023-09-17T11:45:59.389Z,50
2023-09-17T11:46:59.410Z,48
2023-09-17T11:47:59.366Z,47.1
2023-09-17T11:48:59.357Z,46.1
2023-09-17T11:49:59.396Z,48.7
2023-09-17T11:50:59.346Z,49
2023-09-17T11:51:59.345Z,48
2023-09-17T11:52:59.366Z,48.7
2023-09-17T11:53:59.347Z,46.7
2023-09-17T11:54:59.368Z,45.8
2023-09-17T11:55:59.415Z,46.7
2023-09-17T11:56:59.351Z,48.4
2023-09-17T11:57:59.345Z,48
2023-09-17T11:58:59.432Z,46.4
2023-09-17T11:59:59.368Z,47.1
2023-09-17T12:00:59.350Z,45.8
2023-09-17T12:01:59.460Z,46.7
2023-09-17T12:02:59.390Z,48.1
2023-09-17T12:03:59.386Z,44.5
2023-09-17T12:04:59.441Z,45.4
2023-09-17T12:05:59.348Z,46.7
2023-09-17T12:06:59.341Z,44.4
2023-09-17T12:07:59.377Z,44.1
2023-09-17T12:08:59.340Z,44.4
2023-09-17T12:09:59.372Z,45.4
2023-09-17T12:10:59.408Z,46.1
2023-09-17T12:11:59.363Z,44.8
2023-09-17T12:12:59.343Z,47.4
2023-09-17T12:13:59.356Z,47.7
2023-09-17T12:14:59.342Z,46.7
2023-09-17T12:15:59.336Z,44.1
2023-09-17T12:16:59.456Z,45.1
2023-09-17T12:17:59.551Z,46.1
2023-09-17T12:19:11.543Z,46.1
2023-09-17T12:19:59.436Z,46.1
2023-09-17T12:20:59.342Z,43.8
2023-09-17T12:21:59.339Z,45.4
2023-09-17T12:22:59.434Z,43.5
2023-09-17T12:23:59.346Z,43.5
2023-09-17T12:24:59.341Z,45.1
2023-09-17T12:25:59.391Z,46.1
2023-09-17T12:26:59.344Z,43.5
2023-09-17T12:27:59.373Z,43.8
2023-09-17T12:28:59.375Z,43.8
2023-09-17T12:29:59.346Z,44.1
2023-09-17T12:30:59.409Z,44.1
2023-09-17T12:31:59.366Z,42.8
2023-09-17T12:32:59.391Z,42.8
2023-09-17T12:33:59.359Z,43.5
2023-09-17T12:34:59.402Z,43.5
2023-09-17T12:35:59.343Z,44.5
2023-09-17T12:36:59.353Z,43.5
2023-09-17T12:37:59.391Z,43.5
2023-09-17T12:38:59.341Z,42.2
2023-09-17T12:39:59.352Z,41.9
2023-09-17T12:40:59.400Z,42.2
2023-09-17T12:41:59.359Z,42.5
2023-09-17T12:42:59.344Z,43.5
2023-09-17T12:43:59.359Z,42.9
2023-09-17T12:44:59.355Z,42.2
2023-09-17T12:45:59.381Z,42.5
2023-09-17T12:46:59.755Z,42.2
2023-09-17T12:47:59.391Z,41.6
2023-09-17T12:48:59.359Z,44.2
2023-09-17T12:49:59.382Z,41.6
2023-09-17T12:51:01.949Z,42.6
2023-09-17T12:51:59.376Z,42.9
2023-09-17T12:52:59.414Z,40.9
2023-09-17T12:53:59.347Z,42.2
2023-09-17T12:54:59.364Z,41.6
2023-09-17T12:55:59.382Z,41.6
2023-09-17T12:56:59.336Z,42.2
2023-09-17T12:57:59.344Z,43.8
2023-09-17T12:58:59.366Z,42.9
2023-09-17T12:59:59.345Z,45.2
2023-09-17T13:00:59.348Z,43.8
2023-09-17T13:01:59.531Z,44.5
2023-09-17T13:02:59.514Z,43.5
2023-09-17T13:04:00.894Z,45.5
2023-09-17T13:04:59.419Z,44.5
2023-09-17T13:05:59.357Z,44.5
2023-09-17T13:06:59.363Z,45.8
2023-09-17T13:07:59.422Z,44.8
2023-09-17T13:08:59.377Z,42.6
2023-09-17T13:09:59.343Z,43.2
2023-09-17T13:10:59.364Z,44.5
2023-09-17T13:11:59.362Z,44.8
2023-09-17T13:12:59.349Z,44.8
2023-09-17T13:13:59.455Z,44.5
2023-09-17T13:14:59.335Z,44.8
2023-09-17T13:15:59.352Z,46.1
2023-09-17T13:16:59.378Z,45.5
2023-09-17T13:17:59.375Z,45.8
2023-09-17T13:18:59.352Z,45.5
2023-09-17T13:19:59.407Z,44.5
2023-09-17T13:20:59.353Z,44.8
2023-09-17T13:21:59.347Z,44.9